sensor_id;sensor_type;location;lat;lon;timestamp;P1;durP1;ratioP1;P2;durP2;ratioP2
4521;SDS011;2273;48.464;11.926;2023-03-17T00:01:06;5.50;;;4.30;;
4521;SDS011;2273;48.464;11.926;2023-03-17T00:03:35;7.03;;;4.77;;
4521;SDS011;2273;48.464;11.926;2023-03-17T00:06:02;7.43;;;4.18;;
4521;SDS011;2273;48.464;11.926;2023-03-17T00:08:32;6.10;;;4.30;;
4521;SDS011;2273;48.464;11.926;2023-03-17T00:11:00;7.20;;;4.07;;
4521;SDS011;2273;48.464;11.926;2023-03-17T00:13:25;6.83;;;4.83;;
4521;SDS011;2273;48.464;11.926;2023-03-17T00:15:52;7.17;;;3.90;;
4521;SDS011;2273;48.464;11.926;2023-03-17T00:18:19;7.30;;;4.43;;
4521;SDS011;2273;48.464;11.926;2023-03-17T00:20:46;5.20;;;4.30;;
4521;SDS011;2273;48.464;11.926;2023-03-17T00:23:13;5.57;;;4.40;;
4521;SDS011;2273;48.464;11.926;2023-03-17T00:25:41;8.73;;;4.40;;
4521;SDS011;2273;48.464;11.926;2023-03-17T00:28:08;6.18;;;4.78;;
4521;SDS011;2273;48.464;11.926;2023-03-17T00:30:39;5.90;;;4.60;;
4521;SDS011;2273;48.464;11.926;2023-03-17T00:33:05;6.27;;;4.70;;
4521;SDS011;2273;48.464;11.926;2023-03-17T00:35:31;7.30;;;4.45;;
4521;SDS011;2273;48.464;11.926;2023-03-17T00:37:57;5.37;;;4.20;;
4521;SDS011;2273;48.464;11.926;2023-03-17T00:40:27;5.25;;;4.57;;
4521;SDS011;2273;48.464;11.926;2023-03-17T00:42:54;5.75;;;4.35;;
4521;SDS011;2273;48.464;11.926;2023-03-17T00:45:20;6.33;;;4.07;;
4521;SDS011;2273;48.464;11.926;2023-03-17T00:47:48;8.52;;;4.20;;
4521;SDS011;2273;48.464;11.926;2023-03-17T00:50:18;9.38;;;4.55;;
4521;SDS011;2273;48.464;11.926;2023-03-17T00:52:48;5.10;;;4.03;;
4521;SDS011;2273;48.464;11.926;2023-03-17T00:55:17;11.40;;;4.68;;
4521;SDS011;2273;48.464;11.926;2023-03-17T00:57:43;4.85;;;3.92;;
4521;SDS011;2273;48.464;11.926;2023-03-17T01:00:17;6.40;;;3.67;;
4521;SDS011;2273;48.464;11.926;2023-03-17T01:02:45;5.07;;;4.10;;
4521;SDS011;2273;48.464;11.926;2023-03-17T01:05:11;5.95;;;4.15;;
4521;SDS011;2273;48.464;11.926;2023-03-17T01:07:39;8.98;;;4.88;;
4521;SDS011;2273;48.464;11.926;2023-03-17T01:10:21;11.73;;;4.30;;
4521;SDS011;2273;48.464;11.926;2023-03-17T01:12:50;5.35;;;4.40;;
4521;SDS011;2273;48.464;11.926;2023-03-17T01:15:19;5.57;;;4.47;;
4521;SDS011;2273;48.464;11.926;2023-03-17T01:17:46;6.97;;;4.38;;
4521;SDS011;2273;48.464;11.926;2023-03-17T01:20:33;6.65;;;4.25;;
4521;SDS011;2273;48.464;11.926;2023-03-17T01:22:58;6.65;;;4.70;;
4521;SDS011;2273;48.464;11.926;2023-03-17T01:25:24;9.43;;;4.63;;
4521;SDS011;2273;48.464;11.926;2023-03-17T01:27:53;6.82;;;5.30;;
4521;SDS011;2273;48.464;11.926;2023-03-17T01:30:20;9.65;;;4.90;;
4521;SDS011;2273;48.464;11.926;2023-03-17T01:32:48;7.60;;;4.57;;
4521;SDS011;2273;48.464;11.926;2023-03-17T01:35:14;9.60;;;5.40;;
4521;SDS011;2273;48.464;11.926;2023-03-17T01:37:40;9.15;;;5.50;;
4521;SDS011;2273;48.464;11.926;2023-03-17T01:40:06;9.55;;;4.80;;
4521;SDS011;2273;48.464;11.926;2023-03-17T01:42:35;6.18;;;4.38;;
4521;SDS011;2273;48.464;11.926;2023-03-17T01:45:07;6.80;;;4.40;;
4521;SDS011;2273;48.464;11.926;2023-03-17T01:48:10;6.97;;;4.90;;
4521;SDS011;2273;48.464;11.926;2023-03-17T01:50:35;5.10;;;4.50;;
4521;SDS011;2273;48.464;11.926;2023-03-17T01:53:01;7.23;;;4.97;;
4521;SDS011;2273;48.464;11.926;2023-03-17T01:55:27;8.70;;;5.37;;
4521;SDS011;2273;48.464;11.926;2023-03-17T01:57:54;6.80;;;4.93;;
4521;SDS011;2273;48.464;11.926;2023-03-17T02:00:21;6.78;;;5.15;;
4521;SDS011;2273;48.464;11.926;2023-03-17T02:02:51;7.93;;;4.68;;
4521;SDS011;2273;48.464;11.926;2023-03-17T02:05:26;7.25;;;5.10;;
4521;SDS011;2273;48.464;11.926;2023-03-17T02:07:54;7.70;;;4.38;;
4521;SDS011;2273;48.464;11.926;2023-03-17T02:10:25;10.45;;;4.80;;
4521;SDS011;2273;48.464;11.926;2023-03-17T02:12:53;9.25;;;4.50;;
4521;SDS011;2273;48.464;11.926;2023-03-17T02:15:21;7.40;;;4.78;;
4521;SDS011;2273;48.464;11.926;2023-03-17T02:17:49;7.03;;;5.03;;
4521;SDS011;2273;48.464;11.926;2023-03-17T02:22:40;7.47;;;4.67;;
4521;SDS011;2273;48.464;11.926;2023-03-17T02:25:12;6.00;;;4.40;;
4521;SDS011;2273;48.464;11.926;2023-03-17T02:27:40;7.43;;;5.47;;
4521;SDS011;2273;48.464;11.926;2023-03-17T02:30:09;6.00;;;4.70;;
4521;SDS011;2273;48.464;11.926;2023-03-17T02:32:36;6.45;;;4.72;;
4521;SDS011;2273;48.464;11.926;2023-03-17T02:35:02;6.28;;;4.50;;
4521;SDS011;2273;48.464;11.926;2023-03-17T02:37:29;6.57;;;4.78;;
4521;SDS011;2273;48.464;11.926;2023-03-17T02:39:54;9.03;;;5.10;;
4521;SDS011;2273;48.464;11.926;2023-03-17T02:42:20;8.90;;;5.00;;
4521;SDS011;2273;48.464;11.926;2023-03-17T02:44:46;6.03;;;4.80;;
4521;SDS011;2273;48.464;11.926;2023-03-17T02:47:11;8.87;;;5.07;;
4521;SDS011;2273;48.464;11.926;2023-03-17T02:49:37;7.70;;;4.20;;
4521;SDS011;2273;48.464;11.926;2023-03-17T02:52:03;6.40;;;4.90;;
4521;SDS011;2273;48.464;11.926;2023-03-17T02:54:29;7.35;;;4.78;;
4521;SDS011;2273;48.464;11.926;2023-03-17T02:56:55;5.33;;;4.00;;
4521;SDS011;2273;48.464;11.926;2023-03-17T02:59:20;6.40;;;4.80;;
4521;SDS011;2273;48.464;11.926;2023-03-17T03:01:46;7.00;;;4.73;;
4521;SDS011;2273;48.464;11.926;2023-03-17T03:04:13;8.77;;;5.32;;
4521;SDS011;2273;48.464;11.926;2023-03-17T03:06:38;6.80;;;4.70;;
4521;SDS011;2273;48.464;11.926;2023-03-17T03:09:06;6.57;;;4.60;;
4521;SDS011;2273;48.464;11.926;2023-03-17T03:11:32;9.47;;;5.50;;
4521;SDS011;2273;48.464;11.926;2023-03-17T03:13:57;6.57;;;5.27;;
4521;SDS011;2273;48.464;11.926;2023-03-17T03:16:23;8.63;;;6.00;;
4521;SDS011;2273;48.464;11.926;2023-03-17T03:18:48;8.00;;;4.90;;
4521;SDS011;2273;48.464;11.926;2023-03-17T03:21:13;7.80;;;5.63;;
4521;SDS011;2273;48.464;11.926;2023-03-17T03:23:39;5.50;;;4.57;;
4521;SDS011;2273;48.464;11.926;2023-03-17T03:26:04;9.63;;;5.33;;
4521;SDS011;2273;48.464;11.926;2023-03-17T03:28:30;6.47;;;5.07;;
4521;SDS011;2273;48.464;11.926;2023-03-17T03:30:56;6.63;;;5.23;;
4521;SDS011;2273;48.464;11.926;2023-03-17T03:33:21;6.47;;;5.20;;
4521;SDS011;2273;48.464;11.926;2023-03-17T03:35:47;9.37;;;5.47;;
4521;SDS011;2273;48.464;11.926;2023-03-17T03:38:12;7.93;;;5.40;;
4521;SDS011;2273;48.464;11.926;2023-03-17T03:40:38;6.40;;;4.33;;
4521;SDS011;2273;48.464;11.926;2023-03-17T03:43:03;9.53;;;5.73;;
4521;SDS011;2273;48.464;11.926;2023-03-17T03:45:29;8.07;;;5.13;;
4521;SDS011;2273;48.464;11.926;2023-03-17T03:47:55;9.43;;;5.10;;
4521;SDS011;2273;48.464;11.926;2023-03-17T03:50:21;8.27;;;5.13;;
4521;SDS011;2273;48.464;11.926;2023-03-17T03:52:46;6.17;;;4.73;;
4521;SDS011;2273;48.464;11.926;2023-03-17T03:55:12;15.77;;;5.30;;
4521;SDS011;2273;48.464;11.926;2023-03-17T03:57:37;10.67;;;5.50;;
4521;SDS011;2273;48.464;11.926;2023-03-17T04:00:03;8.90;;;5.53;;
4521;SDS011;2273;48.464;11.926;2023-03-17T04:02:37;7.15;;;5.00;;
4521;SDS011;2273;48.464;11.926;2023-03-17T04:05:02;8.70;;;5.57;;
4521;SDS011;2273;48.464;11.926;2023-03-17T04:07:28;7.67;;;5.50;;
4521;SDS011;2273;48.464;11.926;2023-03-17T04:09:53;10.17;;;5.77;;
4521;SDS011;2273;48.464;11.926;2023-03-17T04:12:18;13.63;;;5.70;;
4521;SDS011;2273;48.464;11.926;2023-03-17T04:14:44;9.00;;;5.80;;
4521;SDS011;2273;48.464;11.926;2023-03-17T04:17:10;9.13;;;6.07;;
4521;SDS011;2273;48.464;11.926;2023-03-17T04:19:36;9.43;;;5.60;;
4521;SDS011;2273;48.464;11.926;2023-03-17T04:22:02;8.60;;;5.50;;
4521;SDS011;2273;48.464;11.926;2023-03-17T04:24:28;11.43;;;5.68;;
4521;SDS011;2273;48.464;11.926;2023-03-17T04:26:53;9.90;;;5.30;;
4521;SDS011;2273;48.464;11.926;2023-03-17T04:29:19;6.97;;;5.20;;
4521;SDS011;2273;48.464;11.926;2023-03-17T04:31:44;6.80;;;5.40;;
4521;SDS011;2273;48.464;11.926;2023-03-17T04:34:14;9.40;;;5.40;;
4521;SDS011;2273;48.464;11.926;2023-03-17T04:36:42;11.80;;;5.88;;
4521;SDS011;2273;48.464;11.926;2023-03-17T04:39:08;16.85;;;5.68;;
4521;SDS011;2273;48.464;11.926;2023-03-17T04:41:33;8.70;;;5.67;;
4521;SDS011;2273;48.464;11.926;2023-03-17T04:43:59;12.00;;;5.50;;
4521;SDS011;2273;48.464;11.926;2023-03-17T04:46:24;7.03;;;5.10;;
4521;SDS011;2273;48.464;11.926;2023-03-17T04:48:50;9.70;;;6.10;;
4521;SDS011;2273;48.464;11.926;2023-03-17T04:51:15;11.43;;;6.20;;
4521;SDS011;2273;48.464;11.926;2023-03-17T04:53:41;8.00;;;5.40;;
4521;SDS011;2273;48.464;11.926;2023-03-17T04:56:07;6.47;;;5.40;;
4521;SDS011;2273;48.464;11.926;2023-03-17T04:58:32;8.10;;;4.93;;
4521;SDS011;2273;48.464;11.926;2023-03-17T05:00:57;11.10;;;6.60;;
4521;SDS011;2273;48.464;11.926;2023-03-17T05:03:23;7.33;;;5.20;;
4521;SDS011;2273;48.464;11.926;2023-03-17T05:05:49;7.15;;;5.45;;
4521;SDS011;2273;48.464;11.926;2023-03-17T05:08:15;14.57;;;5.77;;
4521;SDS011;2273;48.464;11.926;2023-03-17T05:10:41;8.00;;;6.10;;
4521;SDS011;2273;48.464;11.926;2023-03-17T05:13:06;9.00;;;6.07;;
4521;SDS011;2273;48.464;11.926;2023-03-17T05:15:31;12.47;;;6.23;;
4521;SDS011;2273;48.464;11.926;2023-03-17T05:17:57;11.27;;;5.30;;
4521;SDS011;2273;48.464;11.926;2023-03-17T05:20:22;10.57;;;5.97;;
4521;SDS011;2273;48.464;11.926;2023-03-17T05:22:48;9.60;;;6.10;;
4521;SDS011;2273;48.464;11.926;2023-03-17T05:25:13;9.40;;;6.00;;
4521;SDS011;2273;48.464;11.926;2023-03-17T05:27:38;11.60;;;6.73;;
4521;SDS011;2273;48.464;11.926;2023-03-17T05:30:04;10.30;;;6.37;;
4521;SDS011;2273;48.464;11.926;2023-03-17T05:32:30;11.00;;;6.33;;
4521;SDS011;2273;48.464;11.926;2023-03-17T05:34:56;8.93;;;5.70;;
4521;SDS011;2273;48.464;11.926;2023-03-17T05:37:21;12.40;;;6.23;;
4521;SDS011;2273;48.464;11.926;2023-03-17T05:39:47;10.60;;;5.70;;
4521;SDS011;2273;48.464;11.926;2023-03-17T05:42:12;12.20;;;6.50;;
4521;SDS011;2273;48.464;11.926;2023-03-17T05:44:38;11.73;;;6.13;;
4521;SDS011;2273;48.464;11.926;2023-03-17T05:47:03;8.20;;;6.20;;
4521;SDS011;2273;48.464;11.926;2023-03-17T05:49:29;9.10;;;6.70;;
4521;SDS011;2273;48.464;11.926;2023-03-17T05:51:54;9.23;;;6.43;;
4521;SDS011;2273;48.464;11.926;2023-03-17T05:54:20;8.53;;;6.20;;
4521;SDS011;2273;48.464;11.926;2023-03-17T05:56:46;10.85;;;6.60;;
4521;SDS011;2273;48.464;11.926;2023-03-17T05:59:12;10.87;;;7.30;;
4521;SDS011;2273;48.464;11.926;2023-03-17T06:01:40;10.95;;;6.80;;
4521;SDS011;2273;48.464;11.926;2023-03-17T06:04:06;12.67;;;6.50;;
4521;SDS011;2273;48.464;11.926;2023-03-17T06:06:31;10.27;;;6.40;;
4521;SDS011;2273;48.464;11.926;2023-03-17T06:08:57;8.30;;;5.70;;
4521;SDS011;2273;48.464;11.926;2023-03-17T06:11:23;9.40;;;6.20;;
4521;SDS011;2273;48.464;11.926;2023-03-17T06:13:49;12.30;;;5.93;;
4521;SDS011;2273;48.464;11.926;2023-03-17T06:16:15;10.83;;;6.53;;
4521;SDS011;2273;48.464;11.926;2023-03-17T06:18:40;9.83;;;6.03;;
4521;SDS011;2273;48.464;11.926;2023-03-17T06:21:06;11.73;;;6.63;;
4521;SDS011;2273;48.464;11.926;2023-03-17T06:23:32;7.80;;;5.73;;
4521;SDS011;2273;48.464;11.926;2023-03-17T06:25:57;8.63;;;5.83;;
4521;SDS011;2273;48.464;11.926;2023-03-17T06:28:23;10.80;;;6.70;;
4521;SDS011;2273;48.464;11.926;2023-03-17T06:30:48;9.03;;;6.60;;
4521;SDS011;2273;48.464;11.926;2023-03-17T06:33:14;9.43;;;5.80;;
4521;SDS011;2273;48.464;11.926;2023-03-17T06:35:40;12.97;;;6.47;;
4521;SDS011;2273;48.464;11.926;2023-03-17T06:38:05;16.53;;;7.23;;
4521;SDS011;2273;48.464;11.926;2023-03-17T06:40:31;8.80;;;6.50;;
4521;SDS011;2273;48.464;11.926;2023-03-17T06:42:58;9.50;;;6.25;;
4521;SDS011;2273;48.464;11.926;2023-03-17T06:45:24;11.63;;;7.00;;
4521;SDS011;2273;48.464;11.926;2023-03-17T06:47:49;11.90;;;6.00;;
4521;SDS011;2273;48.464;11.926;2023-03-17T06:50:15;8.93;;;6.47;;
4521;SDS011;2273;48.464;11.926;2023-03-17T06:52:40;9.50;;;6.30;;
4521;SDS011;2273;48.464;11.926;2023-03-17T06:55:06;20.10;;;6.20;;
4521;SDS011;2273;48.464;11.926;2023-03-17T06:57:32;10.38;;;6.30;;
4521;SDS011;2273;48.464;11.926;2023-03-17T06:59:58;11.20;;;6.40;;
4521;SDS011;2273;48.464;11.926;2023-03-17T07:02:23;12.63;;;5.93;;
4521;SDS011;2273;48.464;11.926;2023-03-17T07:04:50;13.45;;;6.50;;
4521;SDS011;2273;48.464;11.926;2023-03-17T07:07:16;10.27;;;6.33;;
4521;SDS011;2273;48.464;11.926;2023-03-17T07:09:41;9.83;;;6.03;;
4521;SDS011;2273;48.464;11.926;2023-03-17T07:12:07;8.73;;;6.67;;
4521;SDS011;2273;48.464;11.926;2023-03-17T07:14:33;9.50;;;5.90;;
4521;SDS011;2273;48.464;11.926;2023-03-17T07:17:00;18.08;;;5.85;;
4521;SDS011;2273;48.464;11.926;2023-03-17T07:19:27;8.68;;;5.65;;
4521;SDS011;2273;48.464;11.926;2023-03-17T07:21:53;8.30;;;5.00;;
4521;SDS011;2273;48.464;11.926;2023-03-17T07:24:20;21.23;;;5.40;;
4521;SDS011;2273;48.464;11.926;2023-03-17T07:26:46;6.32;;;4.90;;
4521;SDS011;2273;48.464;11.926;2023-03-17T07:29:11;18.47;;;5.50;;
4521;SDS011;2273;48.464;11.926;2023-03-17T07:31:38;8.52;;;5.82;;
4521;SDS011;2273;48.464;11.926;2023-03-17T07:34:03;10.57;;;6.20;;
4521;SDS011;2273;48.464;11.926;2023-03-17T07:36:30;11.20;;;5.60;;
4521;SDS011;2273;48.464;11.926;2023-03-17T07:38:56;7.07;;;5.40;;
4521;SDS011;2273;48.464;11.926;2023-03-17T07:41:22;9.07;;;6.50;;
4521;SDS011;2273;48.464;11.926;2023-03-17T07:43:47;7.23;;;5.37;;
4521;SDS011;2273;48.464;11.926;2023-03-17T07:46:13;14.70;;;5.87;;
4521;SDS011;2273;48.464;11.926;2023-03-17T07:48:39;8.23;;;5.30;;
4521;SDS011;2273;48.464;11.926;2023-03-17T07:51:09;10.93;;;5.63;;
4521;SDS011;2273;48.464;11.926;2023-03-17T07:53:37;7.72;;;5.47;;
4521;SDS011;2273;48.464;11.926;2023-03-17T07:56:03;8.40;;;5.90;;
4521;SDS011;2273;48.464;11.926;2023-03-17T07:58:28;8.20;;;6.00;;
4521;SDS011;2273;48.464;11.926;2023-03-17T08:00:54;7.17;;;5.73;;
4521;SDS011;2273;48.464;11.926;2023-03-17T08:03:20;7.72;;;5.35;;
4521;SDS011;2273;48.464;11.926;2023-03-17T08:05:50;10.10;;;5.87;;
4521;SDS011;2273;48.464;11.926;2023-03-17T08:08:22;10.63;;;5.40;;
4521;SDS011;2273;48.464;11.926;2023-03-17T08:10:48;13.50;;;5.67;;
4521;SDS011;2273;48.464;11.926;2023-03-17T08:13:15;7.57;;;5.47;;
4521;SDS011;2273;48.464;11.926;2023-03-17T08:15:40;7.97;;;5.70;;
4521;SDS011;2273;48.464;11.926;2023-03-17T08:18:06;7.23;;;5.73;;
4521;SDS011;2273;48.464;11.926;2023-03-17T08:20:32;7.67;;;4.83;;
4521;SDS011;2273;48.464;11.926;2023-03-17T08:22:58;8.23;;;4.67;;
4521;SDS011;2273;48.464;11.926;2023-03-17T08:25:24;5.77;;;4.30;;
4521;SDS011;2273;48.464;11.926;2023-03-17T08:27:49;6.40;;;4.67;;
4521;SDS011;2273;48.464;11.926;2023-03-17T08:30:15;12.73;;;5.17;;
4521;SDS011;2273;48.464;11.926;2023-03-17T08:32:41;6.53;;;4.97;;
4521;SDS011;2273;48.464;11.926;2023-03-17T08:35:10;10.93;;;5.10;;
4521;SDS011;2273;48.464;11.926;2023-03-17T08:37:36;7.57;;;4.67;;
4521;SDS011;2273;48.464;11.926;2023-03-17T08:40:02;4.90;;;4.10;;
4521;SDS011;2273;48.464;11.926;2023-03-17T08:42:29;5.17;;;4.20;;
4521;SDS011;2273;48.464;11.926;2023-03-17T08:44:55;5.80;;;4.20;;
4521;SDS011;2273;48.464;11.926;2023-03-17T08:47:21;9.40;;;4.87;;
4521;SDS011;2273;48.464;11.926;2023-03-17T08:49:47;6.20;;;4.33;;
4521;SDS011;2273;48.464;11.926;2023-03-17T08:52:13;7.23;;;4.83;;
4521;SDS011;2273;48.464;11.926;2023-03-17T08:54:39;5.57;;;4.00;;
4521;SDS011;2273;48.464;11.926;2023-03-17T08:57:05;10.60;;;4.87;;
4521;SDS011;2273;48.464;11.926;2023-03-17T08:59:30;8.60;;;4.83;;
4521;SDS011;2273;48.464;11.926;2023-03-17T09:01:56;6.33;;;3.43;;
4521;SDS011;2273;48.464;11.926;2023-03-17T09:04:22;6.10;;;4.07;;
4521;SDS011;2273;48.464;11.926;2023-03-17T09:06:47;6.30;;;4.80;;
4521;SDS011;2273;48.464;11.926;2023-03-17T09:09:13;6.77;;;4.00;;
4521;SDS011;2273;48.464;11.926;2023-03-17T09:11:39;9.20;;;5.03;;
4521;SDS011;2273;48.464;11.926;2023-03-17T09:14:04;5.57;;;3.83;;
4521;SDS011;2273;48.464;11.926;2023-03-17T09:16:29;5.80;;;4.27;;
4521;SDS011;2273;48.464;11.926;2023-03-17T09:18:58;5.80;;;4.50;;
4521;SDS011;2273;48.464;11.926;2023-03-17T09:21:23;7.90;;;4.30;;
4521;SDS011;2273;48.464;11.926;2023-03-17T09:23:49;7.63;;;5.47;;
4521;SDS011;2273;48.464;11.926;2023-03-17T09:26:14;5.23;;;4.30;;
4521;SDS011;2273;48.464;11.926;2023-03-17T09:28:40;6.47;;;4.40;;
4521;SDS011;2273;48.464;11.926;2023-03-17T09:31:06;6.80;;;5.50;;
4521;SDS011;2273;48.464;11.926;2023-03-17T09:33:36;7.30;;;4.30;;
4521;SDS011;2273;48.464;11.926;2023-03-17T09:36:02;6.50;;;5.03;;
4521;SDS011;2273;48.464;11.926;2023-03-17T09:38:28;6.80;;;5.00;;
4521;SDS011;2273;48.464;11.926;2023-03-17T09:41:37;7.97;;;4.43;;
4521;SDS011;2273;48.464;11.926;2023-03-17T09:44:06;7.60;;;4.23;;
4521;SDS011;2273;48.464;11.926;2023-03-17T09:47:00;5.13;;;4.33;;
4521;SDS011;2273;48.464;11.926;2023-03-17T09:49:40;9.63;;;4.53;;
4521;SDS011;2273;48.464;11.926;2023-03-17T09:52:11;6.53;;;4.40;;
4521;SDS011;2273;48.464;11.926;2023-03-17T09:54:37;6.00;;;4.17;;
4521;SDS011;2273;48.464;11.926;2023-03-17T09:57:05;5.83;;;4.50;;
4521;SDS011;2273;48.464;11.926;2023-03-17T09:59:44;7.70;;;4.20;;
4521;SDS011;2273;48.464;11.926;2023-03-17T10:02:24;5.77;;;4.17;;
4521;SDS011;2273;48.464;11.926;2023-03-17T10:04:51;4.97;;;3.80;;
4521;SDS011;2273;48.464;11.926;2023-03-17T10:07:41;6.20;;;4.30;;
4521;SDS011;2273;48.464;11.926;2023-03-17T10:13:24;6.23;;;4.07;;
4521;SDS011;2273;48.464;11.926;2023-03-17T10:16:16;11.10;;;5.00;;
4521;SDS011;2273;48.464;11.926;2023-03-17T10:18:56;6.13;;;4.10;;
4521;SDS011;2273;48.464;11.926;2023-03-17T10:21:29;7.80;;;4.07;;
4521;SDS011;2273;48.464;11.926;2023-03-17T10:23:56;7.43;;;4.20;;
4521;SDS011;2273;48.464;11.926;2023-03-17T10:28:58;4.80;;;4.00;;
4521;SDS011;2273;48.464;11.926;2023-03-17T10:31:32;4.57;;;3.43;;
4521;SDS011;2273;48.464;11.926;2023-03-17T10:34:15;6.27;;;4.53;;
4521;SDS011;2273;48.464;11.926;2023-03-17T10:36:43;4.10;;;3.50;;
4521;SDS011;2273;48.464;11.926;2023-03-17T10:39:16;4.73;;;3.60;;
4521;SDS011;2273;48.464;11.926;2023-03-17T10:42:26;4.20;;;3.53;;
4521;SDS011;2273;48.464;11.926;2023-03-17T10:44:41;3.80;;;3.40;;
4521;SDS011;2273;48.464;11.926;2023-03-17T10:47:24;4.20;;;3.37;;
4521;SDS011;2273;48.464;11.926;2023-03-17T10:49:54;5.00;;;3.77;;
4521;SDS011;2273;48.464;11.926;2023-03-17T10:52:22;6.60;;;3.63;;
4521;SDS011;2273;48.464;11.926;2023-03-17T10:54:52;3.83;;;3.13;;
4521;SDS011;2273;48.464;11.926;2023-03-17T10:57:18;4.83;;;3.43;;
4521;SDS011;2273;48.464;11.926;2023-03-17T10:59:51;5.13;;;3.70;;
4521;SDS011;2273;48.464;11.926;2023-03-17T11:02:25;6.90;;;3.70;;
4521;SDS011;2273;48.464;11.926;2023-03-17T11:04:58;5.20;;;4.03;;
4521;SDS011;2273;48.464;11.926;2023-03-17T11:07:43;6.70;;;3.83;;
4521;SDS011;2273;48.464;11.926;2023-03-17T11:10:19;7.20;;;4.37;;
4521;SDS011;2273;48.464;11.926;2023-03-17T11:12:48;5.23;;;3.53;;
4521;SDS011;2273;48.464;11.926;2023-03-17T11:15:19;8.13;;;3.80;;
4521;SDS011;2273;48.464;11.926;2023-03-17T11:18:03;4.90;;;4.13;;
4521;SDS011;2273;48.464;11.926;2023-03-17T11:23:23;6.33;;;3.30;;
4521;SDS011;2273;48.464;11.926;2023-03-17T11:26:22;7.50;;;3.33;;
4521;SDS011;2273;48.464;11.926;2023-03-17T11:31:40;8.13;;;3.10;;
4521;SDS011;2273;48.464;11.926;2023-03-17T11:34:14;11.13;;;3.50;;
4521;SDS011;2273;48.464;11.926;2023-03-17T11:39:22;10.27;;;3.40;;
4521;SDS011;2273;48.464;11.926;2023-03-17T11:41:57;4.73;;;3.10;;
4521;SDS011;2273;48.464;11.926;2023-03-17T11:49:34;4.47;;;2.90;;
4521;SDS011;2273;48.464;11.926;2023-03-17T11:54:48;4.63;;;3.23;;
4521;SDS011;2273;48.464;11.926;2023-03-17T11:57:22;5.73;;;3.77;;
4521;SDS011;2273;48.464;11.926;2023-03-17T12:02:31;6.40;;;3.70;;
4521;SDS011;2273;48.464;11.926;2023-03-17T12:05:04;6.50;;;3.17;;
4521;SDS011;2273;48.464;11.926;2023-03-17T12:10:22;4.63;;;3.40;;
4521;SDS011;2273;48.464;11.926;2023-03-17T12:13:08;4.53;;;3.27;;
4521;SDS011;2273;48.464;11.926;2023-03-17T12:15:46;10.20;;;2.90;;
4521;SDS011;2273;48.464;11.926;2023-03-17T12:18:25;6.23;;;3.37;;
4521;SDS011;2273;48.464;11.926;2023-03-17T12:21:02;8.43;;;3.87;;
4521;SDS011;2273;48.464;11.926;2023-03-17T12:29:01;4.93;;;2.80;;
4521;SDS011;2273;48.464;11.926;2023-03-17T12:31:35;4.90;;;3.50;;
4521;SDS011;2273;48.464;11.926;2023-03-17T12:34:08;5.37;;;3.30;;
4521;SDS011;2273;48.464;11.926;2023-03-17T12:36:53;5.37;;;3.33;;
4521;SDS011;2273;48.464;11.926;2023-03-17T12:39:21;5.53;;;3.07;;
4521;SDS011;2273;48.464;11.926;2023-03-17T12:50:26;5.97;;;2.80;;
4521;SDS011;2273;48.464;11.926;2023-03-17T12:55:51;5.63;;;3.17;;
4521;SDS011;2273;48.464;11.926;2023-03-17T13:06:26;5.17;;;3.10;;
4521;SDS011;2273;48.464;11.926;2023-03-17T13:08:54;4.00;;;2.83;;
4521;SDS011;2273;48.464;11.926;2023-03-17T13:14:25;5.00;;;2.50;;
4521;SDS011;2273;48.464;11.926;2023-03-17T13:22:33;5.60;;;3.07;;
4521;SDS011;2273;48.464;11.926;2023-03-17T13:25:13;9.13;;;2.30;;
4521;SDS011;2273;48.464;11.926;2023-03-17T13:27:51;5.83;;;3.40;;
4521;SDS011;2273;48.464;11.926;2023-03-17T13:41:30;6.50;;;2.90;;
4521;SDS011;2273;48.464;11.926;2023-03-17T13:44:07;3.83;;;2.47;;
4521;SDS011;2273;48.464;11.926;2023-03-17T13:46:43;5.87;;;3.03;;
4521;SDS011;2273;48.464;11.926;2023-03-17T13:51:42;10.03;;;2.90;;
4521;SDS011;2273;48.464;11.926;2023-03-17T13:54:14;4.60;;;3.40;;
4521;SDS011;2273;48.464;11.926;2023-03-17T13:56:53;3.63;;;2.80;;
4521;SDS011;2273;48.464;11.926;2023-03-17T13:59:21;4.20;;;2.90;;
4521;SDS011;2273;48.464;11.926;2023-03-17T14:01:53;4.57;;;2.87;;
4521;SDS011;2273;48.464;11.926;2023-03-17T14:04:26;6.73;;;3.40;;
4521;SDS011;2273;48.464;11.926;2023-03-17T14:06:54;4.43;;;3.13;;
4521;SDS011;2273;48.464;11.926;2023-03-17T14:09:28;5.60;;;3.33;;
4521;SDS011;2273;48.464;11.926;2023-03-17T14:12:12;4.93;;;3.27;;
4521;SDS011;2273;48.464;11.926;2023-03-17T14:17:27;8.77;;;2.67;;
4521;SDS011;2273;48.464;11.926;2023-03-17T14:20:01;4.10;;;2.90;;
4521;SDS011;2273;48.464;11.926;2023-03-17T14:22:32;5.37;;;2.93;;
4521;SDS011;2273;48.464;11.926;2023-03-17T14:25:04;4.30;;;2.70;;
4521;SDS011;2273;48.464;11.926;2023-03-17T14:27:32;3.70;;;2.60;;
4521;SDS011;2273;48.464;11.926;2023-03-17T14:30:06;5.87;;;3.47;;
4521;SDS011;2273;48.464;11.926;2023-03-17T14:32:33;4.30;;;3.00;;
4521;SDS011;2273;48.464;11.926;2023-03-17T14:34:59;5.20;;;3.27;;
4521;SDS011;2273;48.464;11.926;2023-03-17T14:37:25;4.90;;;3.10;;
4521;SDS011;2273;48.464;11.926;2023-03-17T14:39:55;3.70;;;2.67;;
4521;SDS011;2273;48.464;11.926;2023-03-17T14:42:25;4.93;;;2.67;;
4521;SDS011;2273;48.464;11.926;2023-03-17T14:45:00;3.90;;;2.43;;
4521;SDS011;2273;48.464;11.926;2023-03-17T14:47:31;3.80;;;2.50;;
4521;SDS011;2273;48.464;11.926;2023-03-17T14:50:05;4.07;;;2.97;;
4521;SDS011;2273;48.464;11.926;2023-03-17T14:52:38;5.27;;;3.40;;
4521;SDS011;2273;48.464;11.926;2023-03-17T14:55:05;4.70;;;2.73;;
4521;SDS011;2273;48.464;11.926;2023-03-17T14:57:32;3.83;;;2.63;;
4521;SDS011;2273;48.464;11.926;2023-03-17T14:59:59;3.70;;;2.80;;
4521;SDS011;2273;48.464;11.926;2023-03-17T15:04:58;4.13;;;2.60;;
4521;SDS011;2273;48.464;11.926;2023-03-17T15:07:55;5.07;;;2.97;;
4521;SDS011;2273;48.464;11.926;2023-03-17T15:10:24;5.43;;;3.50;;
4521;SDS011;2273;48.464;11.926;2023-03-17T15:13:01;4.23;;;3.07;;
4521;SDS011;2273;48.464;11.926;2023-03-17T15:15:30;8.10;;;2.87;;
4521;SDS011;2273;48.464;11.926;2023-03-17T15:17:57;11.53;;;3.40;;
4521;SDS011;2273;48.464;11.926;2023-03-17T15:20:25;4.90;;;3.00;;
4521;SDS011;2273;48.464;11.926;2023-03-17T15:22:58;4.50;;;3.50;;
4521;SDS011;2273;48.464;11.926;2023-03-17T15:28:01;6.10;;;3.80;;
4521;SDS011;2273;48.464;11.926;2023-03-17T15:30:31;9.80;;;4.23;;
4521;SDS011;2273;48.464;11.926;2023-03-17T15:33:00;6.23;;;4.53;;
4521;SDS011;2273;48.464;11.926;2023-03-17T15:35:27;8.87;;;5.03;;
4521;SDS011;2273;48.464;11.926;2023-03-17T15:37:52;7.80;;;4.50;;
4521;SDS011;2273;48.464;11.926;2023-03-17T15:40:18;9.00;;;3.87;;
4521;SDS011;2273;48.464;11.926;2023-03-17T15:42:44;12.73;;;4.57;;
4521;SDS011;2273;48.464;11.926;2023-03-17T15:45:13;7.93;;;4.40;;
4521;SDS011;2273;48.464;11.926;2023-03-17T15:47:41;7.80;;;4.03;;
4521;SDS011;2273;48.464;11.926;2023-03-17T15:52:48;14.43;;;4.23;;
4521;SDS011;2273;48.464;11.926;2023-03-17T15:55:29;13.17;;;4.37;;
4521;SDS011;2273;48.464;11.926;2023-03-17T15:57:56;6.90;;;3.87;;
4521;SDS011;2273;48.464;11.926;2023-03-17T16:00:22;5.13;;;3.77;;
4521;SDS011;2273;48.464;11.926;2023-03-17T16:02:52;6.60;;;4.60;;
4521;SDS011;2273;48.464;11.926;2023-03-17T16:05:20;7.60;;;4.53;;
4521;SDS011;2273;48.464;11.926;2023-03-17T16:07:53;5.90;;;3.77;;
4521;SDS011;2273;48.464;11.926;2023-03-17T16:10:23;6.57;;;4.67;;
4521;SDS011;2273;48.464;11.926;2023-03-17T16:12:50;6.60;;;4.47;;
4521;SDS011;2273;48.464;11.926;2023-03-17T16:15:16;8.40;;;4.37;;
4521;SDS011;2273;48.464;11.926;2023-03-17T16:17:43;7.30;;;5.00;;
4521;SDS011;2273;48.464;11.926;2023-03-17T16:20:23;7.37;;;5.37;;
4521;SDS011;2273;48.464;11.926;2023-03-17T16:22:51;8.50;;;4.70;;
4521;SDS011;2273;48.464;11.926;2023-03-17T16:25:20;5.50;;;4.43;;
4521;SDS011;2273;48.464;11.926;2023-03-17T16:27:49;7.77;;;4.60;;
4521;SDS011;2273;48.464;11.926;2023-03-17T16:30:19;8.30;;;4.80;;
4521;SDS011;2273;48.464;11.926;2023-03-17T16:32:46;7.50;;;4.63;;
4521;SDS011;2273;48.464;11.926;2023-03-17T16:35:13;8.87;;;5.03;;